sensor_id;sensor_type;location;lat;lon;timestamp;pressure;altitude;pressure_sealevel;temperature;humidity
55604;BME280;41468;48.838;9.330;2023-02-04T00:00:30;99530.00;;;7.69;100.00
55604;BME280;41468;48.838;9.330;2023-02-04T00:02:59;99530.66;;;7.66;100.00
55604;BME280;41468;48.838;9.330;2023-02-04T00:05:26;99545.69;;;7.63;100.00
55604;BME280;41468;48.838;9.330;2023-02-04T00:07:53;99540.69;;;7.65;100.00
55604;BME280;41468;48.838;9.330;2023-02-04T00:10:19;99539.25;;;7.59;100.00
55604;BME280;41468;48.838;9.330;2023-02-04T00:12:46;99536.38;;;7.64;100.00
55604;BME280;41468;48.838;9.330;2023-02-04T00:15:13;99528.09;;;7.61;100.00
55604;BME280;41468;48.838;9.330;2023-02-04T00:17:39;99521.50;;;7.62;100.00
55604;BME280;41468;48.838;9.330;2023-02-04T00:20:06;99526.94;;;7.62;100.00
55604;BME280;41468;48.838;9.330;2023-02-04T00:22:33;99532.88;;;7.55;100.00
55604;BME280;41468;48.838;9.330;2023-02-04T00:24:59;99532.06;;;7.55;100.00
55604;BME280;41468;48.838;9.330;2023-02-04T00:27:37;99539.09;;;7.56;100.00
55604;BME280;41468;48.838;9.330;2023-02-04T00:30:05;99531.09;;;7.50;100.00
55604;BME280;41468;48.838;9.330;2023-02-04T00:32:32;99533.03;;;7.59;100.00
55604;BME280;41468;48.838;9.330;2023-02-04T00:34:59;99538.31;;;7.55;100.00
55604;BME280;41468;48.838;9.330;2023-02-04T00:37:34;99547.75;;;7.58;100.00
55604;BME280;41468;48.838;9.330;2023-02-04T00:40:01;99539.75;;;7.52;100.00
55604;BME280;41468;48.838;9.330;2023-02-04T00:42:39;99537.47;;;7.55;100.00
55604;BME280;41468;48.838;9.330;2023-02-04T00:45:06;99542.31;;;7.58;100.00
55604;BME280;41468;48.838;9.330;2023-02-04T00:47:32;99549.19;;;7.55;100.00
55604;BME280;41468;48.838;9.330;2023-02-04T00:49:59;99549.47;;;7.53;100.00
55604;BME280;41468;48.838;9.330;2023-02-04T00:52:25;99549.97;;;7.56;100.00
55604;BME280;41468;48.838;9.330;2023-02-04T00:54:52;99547.75;;;7.58;100.00
55604;BME280;41468;48.838;9.330;2023-02-04T00:57:18;99552.53;;;7.61;100.00
55604;BME280;41468;48.838;9.330;2023-02-04T00:59:45;99544.53;;;7.64;100.00
55604;BME280;41468;48.838;9.330;2023-02-04T01:02:12;99552.53;;;7.61;100.00
55604;BME280;41468;48.838;9.330;2023-02-04T01:04:38;99549.19;;;7.64;100.00
55604;BME280;41468;48.838;9.330;2023-02-04T01:07:05;99551.13;;;7.63;100.00
55604;BME280;41468;48.838;9.330;2023-02-04T01:09:31;99563.91;;;7.71;100.00
55604;BME280;41468;48.838;9.330;2023-02-04T01:11:59;99550.13;;;7.68;100.00
55604;BME280;41468;48.838;9.330;2023-02-04T01:14:25;99562.00;;;7.72;100.00
55604;BME280;41468;48.838;9.330;2023-02-04T01:16:52;99560.56;;;7.66;100.00
55604;BME280;41468;48.838;9.330;2023-02-04T01:19:19;99560.06;;;7.64;100.00
55604;BME280;41468;48.838;9.330;2023-02-04T01:21:46;99566.94;;;7.61;100.00
55604;BME280;41468;48.838;9.330;2023-02-04T01:24:13;99563.41;;;7.61;100.00
55604;BME280;41468;48.838;9.330;2023-02-04T01:26:39;99578.63;;;7.70;100.00
55604;BME280;41468;48.838;9.330;2023-02-04T01:29:06;99593.19;;;7.74;100.00
55604;BME280;41468;48.838;9.330;2023-02-04T01:31:37;99600.38;;;7.70;100.00
55604;BME280;41468;48.838;9.330;2023-02-04T01:34:04;99598.94;;;7.73;100.00
55604;BME280;41468;48.838;9.330;2023-02-04T01:36:30;99600.06;;;7.72;99.83
55604;BME280;41468;48.838;9.330;2023-02-04T01:38:57;99606.44;;;7.76;100.00
55604;BME280;41468;48.838;9.330;2023-02-04T01:41:26;99611.22;;;7.70;100.00
55604;BME280;41468;48.838;9.330;2023-02-04T01:43:53;99602.78;;;7.72;100.00
55604;BME280;41468;48.838;9.330;2023-02-04T01:46:31;99605.81;;;7.70;100.00
55604;BME280;41468;48.838;9.330;2023-02-04T01:49:00;99594.94;;;7.70;100.00
55604;BME280;41468;48.838;9.330;2023-02-04T01:51:27;99600.84;;;7.64;100.00
55604;BME280;41468;48.838;9.330;2023-02-04T01:54:13;99604.66;;;7.63;100.00
55604;BME280;41468;48.838;9.330;2023-02-04T01:56:44;99610.44;;;7.70;100.00
55604;BME280;41468;48.838;9.330;2023-02-04T01:59:12;99604.38;;;7.73;100.00
55604;BME280;41468;48.838;9.330;2023-02-04T02:01:42;99603.22;;;7.65;100.00
55604;BME280;41468;48.838;9.330;2023-02-04T02:04:10;99595.41;;;7.64;100.00
55604;BME280;41468;48.838;9.330;2023-02-04T02:06:38;99618.59;;;7.70;100.00
55604;BME280;41468;48.838;9.330;2023-02-04T02:09:07;99622.31;;;7.74;100.00
55604;BME280;41468;48.838;9.330;2023-02-04T02:11:33;99626.47;;;7.80;100.00
55604;BME280;41468;48.838;9.330;2023-02-04T02:14:00;99629.31;;;7.75;100.00
55604;BME280;41468;48.838;9.330;2023-02-04T02:16:26;99626.44;;;7.71;100.00
55604;BME280;41468;48.838;9.330;2023-02-04T02:18:53;99620.88;;;7.85;100.00
55604;BME280;41468;48.838;9.330;2023-02-04T02:21:36;99625.34;;;7.81;100.00
55604;BME280;41468;48.838;9.330;2023-02-04T02:24:24;99626.78;;;7.79;100.00
55604;BME280;41468;48.838;9.330;2023-02-04T02:26:52;99633.81;;;7.80;100.00
55604;BME280;41468;48.838;9.330;2023-02-04T02:29:20;99641.47;;;7.69;100.00
55604;BME280;41468;48.838;9.330;2023-02-04T02:31:53;99652.22;;;7.74;100.00
55604;BME280;41468;48.838;9.330;2023-02-04T02:34:24;99640.22;;;7.75;100.00
55604;BME280;41468;48.838;9.330;2023-02-04T02:36:52;99622.25;;;7.65;100.00
55604;BME280;41468;48.838;9.330;2023-02-04T02:39:18;99624.03;;;7.70;100.00
55604;BME280;41468;48.838;9.330;2023-02-04T02:41:45;99627.09;;;7.68;100.00
55604;BME280;41468;48.838;9.330;2023-02-04T02:44:13;99620.53;;;7.69;100.00
55604;BME280;41468;48.838;9.330;2023-02-04T02:46:40;99622.44;;;7.69;100.00
55604;BME280;41468;48.838;9.330;2023-02-04T02:49:13;99634.41;;;7.59;100.00
55604;BME280;41468;48.838;9.330;2023-02-04T02:51:41;99625.63;;;7.62;100.00
55604;BME280;41468;48.838;9.330;2023-02-04T02:54:34;99638.09;;;7.63;99.89
55604;BME280;41468;48.838;9.330;2023-02-04T02:57:01;99636.00;;;7.60;100.00
55604;BME280;41468;48.838;9.330;2023-02-04T02:59:27;99648.66;;;7.65;100.00
55604;BME280;41468;48.838;9.330;2023-02-04T03:01:57;99647.72;;;7.69;100.00
55604;BME280;41468;48.838;9.330;2023-02-04T03:04:27;99653.94;;;7.70;100.00
55604;BME280;41468;48.838;9.330;2023-02-04T03:06:55;99655.38;;;7.67;100.00
55604;BME280;41468;48.838;9.330;2023-02-04T03:09:23;99665.91;;;7.60;100.00
55604;BME280;41468;48.838;9.330;2023-02-04T03:11:51;99659.00;;;7.54;100.00
55604;BME280;41468;48.838;9.330;2023-02-04T03:14:18;99662.38;;;7.60;100.00
55604;BME280;41468;48.838;9.330;2023-02-04T03:16:45;99669.09;;;7.62;100.00
55604;BME280;41468;48.838;9.330;2023-02-04T03:19:12;99668.31;;;7.62;99.48
55604;BME280;41468;48.838;9.330;2023-02-04T03:21:40;99679.34;;;7.65;98.49
55604;BME280;41468;48.838;9.330;2023-02-04T03:24:06;99683.03;;;7.61;98.15
55604;BME280;41468;48.838;9.330;2023-02-04T03:26:33;99686.72;;;7.65;97.29
55604;BME280;41468;48.838;9.330;2023-02-04T03:29:00;99691.34;;;7.64;97.92
55604;BME280;41468;48.838;9.330;2023-02-04T03:31:27;99699.97;;;7.58;97.10
55604;BME280;41468;48.838;9.330;2023-02-04T03:33:53;99706.00;;;7.55;96.98
55604;BME280;41468;48.838;9.330;2023-02-04T03:36:20;99699.97;;;7.58;96.38
55604;BME280;41468;48.838;9.330;2023-02-04T03:38:47;99703.78;;;7.57;96.27
55604;BME280;41468;48.838;9.330;2023-02-04T03:41:13;99716.63;;;7.65;94.89
55604;BME280;41468;48.838;9.330;2023-02-04T03:43:40;99720.13;;;7.65;94.17
55604;BME280;41468;48.838;9.330;2023-02-04T03:46:06;99717.25;;;7.62;93.69
55604;BME280;41468;48.838;9.330;2023-02-04T03:48:33;99718.66;;;7.59;94.37
55604;BME280;41468;48.838;9.330;2023-02-04T03:51:00;99724.88;;;7.51;93.64
55604;BME280;41468;48.838;9.330;2023-02-04T03:53:26;99726.81;;;7.59;93.94
55604;BME280;41468;48.838;9.330;2023-02-04T03:55:53;99727.28;;;7.52;94.72
55604;BME280;41468;48.838;9.330;2023-02-04T03:58:21;99733.47;;;7.44;94.49
55604;BME280;41468;48.838;9.330;2023-02-04T04:00:48;99729.47;;;7.42;95.38
55604;BME280;41468;48.838;9.330;2023-02-04T04:03:15;99745.16;;;7.45;95.47
55604;BME280;41468;48.838;9.330;2023-02-04T04:05:46;99748.38;;;7.47;95.87
55604;BME280;41468;48.838;9.330;2023-02-04T04:08:12;99751.38;;;7.45;96.13
55604;BME280;41468;48.838;9.330;2023-02-04T04:10:39;99751.38;;;7.45;96.14
55604;BME280;41468;48.838;9.330;2023-02-04T04:13:07;99751.50;;;7.40;96.42
55604;BME280;41468;48.838;9.330;2023-02-04T04:15:33;99747.81;;;7.36;97.53
55604;BME280;41468;48.838;9.330;2023-02-04T04:18:00;99741.75;;;7.39;96.91
55604;BME280;41468;48.838;9.330;2023-02-04T04:20:28;99751.88;;;7.47;96.62
55604;BME280;41468;48.838;9.330;2023-02-04T04:22:54;99748.78;;;7.40;96.41
55604;BME280;41468;48.838;9.330;2023-02-04T04:25:21;99751.81;;;7.39;95.89
55604;BME280;41468;48.838;9.330;2023-02-04T04:27:48;99750.84;;;7.35;96.15
55604;BME280;41468;48.838;9.330;2023-02-04T04:30:14;99751.09;;;7.24;97.30
55604;BME280;41468;48.838;9.330;2023-02-04T04:32:41;99750.59;;;7.22;97.94
55604;BME280;41468;48.838;9.330;2023-02-04T04:35:07;99760.47;;;7.41;97.30
55604;BME280;41468;48.838;9.330;2023-02-04T04:37:34;99752.00;;;7.42;97.67
55604;BME280;41468;48.838;9.330;2023-02-04T04:40:01;99762.13;;;7.28;98.72
55604;BME280;41468;48.838;9.330;2023-02-04T04:42:28;99764.25;;;7.31;99.05
55604;BME280;41468;48.838;9.330;2023-02-04T04:44:54;99766.47;;;7.29;98.82
55604;BME280;41468;48.838;9.330;2023-02-04T04:47:21;99773.19;;;7.32;99.47
55604;BME280;41468;48.838;9.330;2023-02-04T04:49:47;99778.25;;;7.24;100.00
55604;BME280;41468;48.838;9.330;2023-02-04T04:52:14;99777.59;;;7.19;100.00
55604;BME280;41468;48.838;9.330;2023-02-04T04:54:40;99785.34;;;7.12;100.00
55604;BME280;41468;48.838;9.330;2023-02-04T04:57:07;99775.63;;;7.11;100.00
55604;BME280;41468;48.838;9.330;2023-02-04T04:59:33;99780.88;;;7.07;100.00
55604;BME280;41468;48.838;9.330;2023-02-04T05:02:05;99771.03;;;7.20;100.00
55604;BME280;41468;48.838;9.330;2023-02-04T05:04:31;99774.69;;;7.15;100.00
55604;BME280;41468;48.838;9.330;2023-02-04T05:06:58;99781.97;;;7.06;100.00
55604;BME280;41468;48.838;9.330;2023-02-04T05:09:24;99776.34;;;7.02;100.00
55604;BME280;41468;48.838;9.330;2023-02-04T05:11:51;99778.06;;;6.98;100.00
55604;BME280;41468;48.838;9.330;2023-02-04T05:14:18;99786.19;;;7.12;100.00
55604;BME280;41468;48.838;9.330;2023-02-04T05:16:55;99772.84;;;7.02;100.00
55604;BME280;41468;48.838;9.330;2023-02-04T05:19:21;99773.13;;;7.00;100.00
55604;BME280;41468;48.838;9.330;2023-02-04T05:21:48;99785.63;;;7.01;100.00
55604;BME280;41468;48.838;9.330;2023-02-04T05:24:14;99779.81;;;6.94;100.00
55604;BME280;41468;48.838;9.330;2023-02-04T05:26:41;99782.53;;;6.94;100.00
55604;BME280;41468;48.838;9.330;2023-02-04T05:29:07;99777.66;;;6.82;100.00
55604;BME280;41468;48.838;9.330;2023-02-04T05:31:36;99772.28;;;6.91;100.00
55604;BME280;41468;48.838;9.330;2023-02-04T05:34:02;99777.09;;;6.94;100.00
55604;BME280;41468;48.838;9.330;2023-02-04T05:36:29;99786.16;;;6.90;100.00
55604;BME280;41468;48.838;9.330;2023-02-04T05:38:55;99790.28;;;6.87;100.00
55604;BME280;41468;48.838;9.330;2023-02-04T05:41:22;99795.63;;;6.78;100.00
55604;BME280;41468;48.838;9.330;2023-02-04T05:43:49;99794.13;;;6.86;100.00
55604;BME280;41468;48.838;9.330;2023-02-04T05:46:15;99799.03;;;6.84;100.00
55604;BME280;41468;48.838;9.330;2023-02-04T05:48:42;99786.25;;;6.84;100.00
55604;BME280;41468;48.838;9.330;2023-02-04T05:51:08;99784.16;;;6.81;100.00
55604;BME280;41468;48.838;9.330;2023-02-04T05:53:35;99774.81;;;6.74;100.00
55604;BME280;41468;48.838;9.330;2023-02-04T05:56:01;99770.41;;;6.78;100.00
55604;BME280;41468;48.838;9.330;2023-02-04T05:58:28;99785.91;;;6.77;100.00
55604;BME280;41468;48.838;9.330;2023-02-04T06:00:59;99789.03;;;6.71;100.00
55604;BME280;41468;48.838;9.330;2023-02-04T06:03:27;99805.63;;;6.69;100.00
55604;BME280;41468;48.838;9.330;2023-02-04T06:05:55;99818.88;;;6.71;100.00
55604;BME280;41468;48.838;9.330;2023-02-04T06:08:22;99819.09;;;6.60;100.00
55604;BME280;41468;48.838;9.330;2023-02-04T06:10:48;99824.16;;;6.53;100.00
55604;BME280;41468;48.838;9.330;2023-02-04T06:13:15;99835.88;;;6.62;100.00
55604;BME280;41468;48.838;9.330;2023-02-04T06:15:42;99839.97;;;6.74;100.00
55604;BME280;41468;48.838;9.330;2023-02-04T06:18:08;99845.72;;;6.72;100.00
55604;BME280;41468;48.838;9.330;2023-02-04T06:20:35;99842.09;;;6.77;100.00
55604;BME280;41468;48.838;9.330;2023-02-04T06:23:01;99847.66;;;6.72;100.00
55604;BME280;41468;48.838;9.330;2023-02-04T06:25:28;99844.72;;;6.68;100.00
55604;BME280;41468;48.838;9.330;2023-02-04T06:27:54;99859.53;;;6.62;100.00
55604;BME280;41468;48.838;9.330;2023-02-04T06:30:21;99855.69;;;6.49;100.00
55604;BME280;41468;48.838;9.330;2023-02-04T06:32:48;99856.31;;;6.46;100.00
55604;BME280;41468;48.838;9.330;2023-02-04T06:35:14;99860.13;;;6.45;100.00
55604;BME280;41468;48.838;9.330;2023-02-04T06:37:42;99867.78;;;6.43;100.00
55604;BME280;41468;48.838;9.330;2023-02-04T06:40:09;99870.06;;;6.36;100.00
55604;BME280;41468;48.838;9.330;2023-02-04T06:42:36;99878.22;;;6.36;100.00
55604;BME280;41468;48.838;9.330;2023-02-04T06:45:03;99880.94;;;6.36;100.00
55604;BME280;41468;48.838;9.330;2023-02-04T06:47:30;99873.28;;;6.38;100.00
55604;BME280;41468;48.838;9.330;2023-02-04T06:49:57;99870.97;;;6.31;100.00
55604;BME280;41468;48.838;9.330;2023-02-04T06:52:23;99882.94;;;6.30;100.00
55604;BME280;41468;48.838;9.330;2023-02-04T06:54:50;99879.44;;;6.30;100.00
55604;BME280;41468;48.838;9.330;2023-02-04T06:57:16;99882.66;;;6.32;100.00
55604;BME280;41468;48.838;9.330;2023-02-04T06:59:43;99896.81;;;6.29;100.00
55604;BME280;41468;48.838;9.330;2023-02-04T07:02:10;99900.94;;;6.40;100.00
55604;BME280;41468;48.838;9.330;2023-02-04T07:04:37;99894.59;;;6.45;100.00
55604;BME280;41468;48.838;9.330;2023-02-04T07:07:10;99898.03;;;6.50;100.00
55604;BME280;41468;48.838;9.330;2023-02-04T07:09:37;99895.69;;;6.44;100.00
55604;BME280;41468;48.838;9.330;2023-02-04T07:12:05;99899.31;;;6.39;100.00
55604;BME280;41468;48.838;9.330;2023-02-04T07:14:35;99916.19;;;6.36;100.00
55604;BME280;41468;48.838;9.330;2023-02-04T07:17:02;99923.25;;;6.37;100.00
55604;BME280;41468;48.838;9.330;2023-02-04T07:19:29;99924.75;;;6.43;100.00
55604;BME280;41468;48.838;9.330;2023-02-04T07:21:55;99925.13;;;6.36;100.00
55604;BME280;41468;48.838;9.330;2023-02-04T07:24:22;99937.63;;;6.51;100.00
55604;BME280;41468;48.838;9.330;2023-02-04T07:26:49;99937.63;;;6.51;100.00
55604;BME280;41468;48.838;9.330;2023-02-04T07:29:16;99945.06;;;6.46;100.00
55604;BME280;41468;48.838;9.330;2023-02-04T07:31:50;99948.06;;;6.44;100.00
55604;BME280;41468;48.838;9.330;2023-02-04T07:34:18;99951.09;;;6.43;100.00
55604;BME280;41468;48.838;9.330;2023-02-04T07:36:45;99952.78;;;6.38;100.00
55604;BME280;41468;48.838;9.330;2023-02-04T07:39:12;99952.59;;;6.35;100.00
55604;BME280;41468;48.838;9.330;2023-02-04T07:41:39;99960.31;;;6.41;100.00
55604;BME280;41468;48.838;9.330;2023-02-04T07:44:06;99952.00;;;6.52;100.00
55604;BME280;41468;48.838;9.330;2023-02-04T07:46:32;99958.22;;;6.52;100.00
55604;BME280;41468;48.838;9.330;2023-02-04T07:48:59;99951.38;;;6.55;100.00
55604;BME280;41468;48.838;9.330;2023-02-04T07:51:26;99962.25;;;6.55;100.00
55604;BME280;41468;48.838;9.330;2023-02-04T07:53:54;99971.00;;;6.52;100.00
55604;BME280;41468;48.838;9.330;2023-02-04T07:56:21;99967.28;;;6.61;100.00
55604;BME280;41468;48.838;9.330;2023-02-04T07:58:52;99973.31;;;6.58;100.00
55604;BME280;41468;48.838;9.330;2023-02-04T08:01:19;99979.66;;;6.54;100.00
55604;BME280;41468;48.838;9.330;2023-02-04T08:03:45;99990.69;;;6.57;100.00
55604;BME280;41468;48.838;9.330;2023-02-04T08:06:12;99984.47;;;6.57;100.00
55604;BME280;41468;48.838;9.330;2023-02-04T08:08:39;99983.78;;;6.65;100.00
55604;BME280;41468;48.838;9.330;2023-02-04T08:11:05;99987.38;;;6.60;100.00
55604;BME280;41468;48.838;9.330;2023-02-04T08:13:32;99988.91;;;6.67;100.00
55604;BME280;41468;48.838;9.330;2023-02-04T08:15:58;99994.22;;;6.58;100.00
55604;BME280;41468;48.838;9.330;2023-02-04T08:18:25;100002.16;;;6.54;100.00
55604;BME280;41468;48.838;9.330;2023-02-04T08:20:52;100003.47;;;6.57;100.00
55604;BME280;41468;48.838;9.330;2023-02-04T08:23:18;100008.91;;;6.57;100.00
55604;BME280;41468;48.838;9.330;2023-02-04T08:25:45;100003.47;;;6.71;100.00
55604;BME280;41468;48.838;9.330;2023-02-04T08:28:16;100014.44;;;6.66;100.00
55604;BME280;41468;48.838;9.330;2023-02-04T08:30:43;100019.47;;;6.72;100.00
55604;BME280;41468;48.838;9.330;2023-02-04T08:33:10;100017.16;;;6.66;100.00
55604;BME280;41468;48.838;9.330;2023-02-04T08:35:37;100015.56;;;6.78;100.00
55604;BME280;41468;48.838;9.330;2023-02-04T08:38:03;100020.00;;;6.88;100.00
55604;BME280;41468;48.838;9.330;2023-02-04T08:40:30;100020.69;;;6.80;100.00
55604;BME280;41468;48.838;9.330;2023-02-04T08:42:57;100030.97;;;6.83;100.00
55604;BME280;41468;48.838;9.330;2023-02-04T08:45:23;100037.47;;;6.82;100.00
55604;BME280;41468;48.838;9.330;2023-02-04T08:47:50;100035.88;;;6.81;100.00
55604;BME280;41468;48.838;9.330;2023-02-04T08:50:17;100036.59;;;6.86;100.00
55604;BME280;41468;48.838;9.330;2023-02-04T08:52:43;100030.78;;;6.93;99.95
55604;BME280;41468;48.838;9.330;2023-02-04T08:55:10;100038.41;;;6.91;99.72
55604;BME280;41468;48.838;9.330;2023-02-04T08:57:36;100033.47;;;7.21;98.47
55604;BME280;41468;48.838;9.330;2023-02-04T09:00:03;100044.13;;;7.31;98.86
55604;BME280;41468;48.838;9.330;2023-02-04T09:02:30;100048.16;;;7.20;95.96
55604;BME280;41468;48.838;9.330;2023-02-04T09:05:08;100045.13;;;7.35;95.05
55604;BME280;41468;48.838;9.330;2023-02-04T09:07:35;100047.16;;;7.16;95.25
55604;BME280;41468;48.838;9.330;2023-02-04T09:10:01;100042.22;;;7.32;94.11
55604;BME280;41468;48.838;9.330;2023-02-04T09:12:28;100044.63;;;7.33;94.49
55604;BME280;41468;48.838;9.330;2023-02-04T09:14:55;100053.78;;;7.37;93.13
55604;BME280;41468;48.838;9.330;2023-02-04T09:17:21;100055.00;;;7.45;92.81
55604;BME280;41468;48.838;9.330;2023-02-04T09:19:48;100063.75;;;7.56;90.72
55604;BME280;41468;48.838;9.330;2023-02-04T09:22:14;100059.78;;;7.62;90.50
55604;BME280;41468;48.838;9.330;2023-02-04T09:24:41;100065.78;;;7.86;89.20
55604;BME280;41468;48.838;9.330;2023-02-04T09:27:07;100074.44;;;7.88;88.43
55604;BME280;41468;48.838;9.330;2023-02-04T09:29:34;100066.41;;;8.06;88.69
55604;BME280;41468;48.838;9.330;2023-02-04T09:32:11;100071.41;;;8.49;84.96
55604;BME280;41468;48.838;9.330;2023-02-04T09:34:38;100071.41;;;8.49;83.87
55604;BME280;41468;48.838;9.330;2023-02-04T09:37:04;100078.09;;;8.65;83.33
55604;BME280;41468;48.838;9.330;2023-02-04T09:39:43;100080.44;;;8.89;82.27
55604;BME280;41468;48.838;9.330;2023-02-04T09:42:13;100079.25;;;9.04;80.07
55604;BME280;41468;48.838;9.330;2023-02-04T09:44:40;100089.38;;;9.12;76.58
55604;BME280;41468;48.838;9.330;2023-02-04T09:47:08;100085.28;;;9.32;77.96
55604;BME280;41468;48.838;9.330;2023-02-04T09:49:36;100091.59;;;9.50;75.00
55604;BME280;41468;48.838;9.330;2023-02-04T09:52:03;100092.88;;;9.52;71.68
55604;BME280;41468;48.838;9.330;2023-02-04T09:54:35;100093.25;;;9.86;68.59
55604;BME280;41468;48.838;9.330;2023-02-04T09:57:12;100084.94;;;10.00;68.21
55604;BME280;41468;48.838;9.330;2023-02-04T09:59:41;100097.13;;;9.85;67.63
55604;BME280;41468;48.838;9.330;2023-02-04T10:02:24;100097.31;;;9.40;69.75
55604;BME280;41468;48.838;9.330;2023-02-04T10:04:54;100100.44;;;9.16;68.60
55604;BME280;41468;48.838;9.330;2023-02-04T10:07:23;100093.78;;;10.23;83.60
55604;BME280;41468;48.838;9.330;2023-02-04T10:09:52;100099.50;;;9.78;67.52
55604;BME280;41468;48.838;9.330;2023-02-04T10:12:20;100094.78;;;9.43;70.17
55604;BME280;41468;48.838;9.330;2023-02-04T10:14:47;100095.66;;;9.21;73.95
55604;BME280;41468;48.838;9.330;2023-02-04T10:17:21;100088.41;;;9.08;74.75
55604;BME280;41468;48.838;9.330;2023-02-04T10:19:48;100104.13;;;8.80;76.61
55604;BME280;41468;48.838;9.330;2023-02-04T10:22:17;100106.19;;;8.52;75.19
55604;BME280;41468;48.838;9.330;2023-02-04T10:24:45;100107.25;;;8.42;75.30
55604;BME280;41468;48.838;9.330;2023-02-04T10:27:12;100111.19;;;8.36;75.22
55604;BME280;41468;48.838;9.330;2023-02-04T10:29:42;100105.06;;;8.30;74.92
55604;BME280;41468;48.838;9.330;2023-02-04T10:32:25;100100.75;;;8.15;76.84
55604;BME280;41468;48.838;9.330;2023-02-04T10:34:56;100102.00;;;8.09;76.27
55604;BME280;41468;48.838;9.330;2023-02-04T10:37:24;100093.03;;;8.09;77.92
55604;BME280;41468;48.838;9.330;2023-02-04T10:39:55;100095.31;;;8.15;77.51
55604;BME280;41468;48.838;9.330;2023-02-04T10:42:28;100096.13;;;8.16;76.64
55604;BME280;41468;48.838;9.330;2023-02-04T10:44:56;100097.88;;;8.34;79.10
55604;BME280;41468;48.838;9.330;2023-02-04T10:47:25;100099.47;;;8.35;76.67
55604;BME280;41468;48.838;9.330;2023-02-04T10:50:13;100096.88;;;8.30;75.67
55604;BME280;41468;48.838;9.330;2023-02-04T10:52:42;100097.69;;;8.31;75.15
55604;BME280;41468;48.838;9.330;2023-02-04T10:55:16;100086.81;;;8.31;74.17
55604;BME280;41468;48.838;9.330;2023-02-04T10:57:55;100089.41;;;8.36;74.51
55604;BME280;41468;48.838;9.330;2023-02-04T11:00:27;100084.53;;;8.47;74.67
55604;BME280;41468;48.838;9.330;2023-02-04T11:02:57;100095.44;;;8.47;71.96
55604;BME280;41468;48.838;9.330;2023-02-04T11:05:34;100086.44;;;8.46;73.21
55604;BME280;41468;48.838;9.330;2023-02-04T11:08:03;100099.69;;;8.39;71.64
55604;BME280;41468;48.838;9.330;2023-02-04T11:10:43;100102.19;;;8.35;72.87
55604;BME280;41468;48.838;9.330;2023-02-04T11:13:20;100103.31;;;8.34;70.97
55604;BME280;41468;48.838;9.330;2023-02-04T11:15:49;100090.28;;;8.45;73.13
55604;BME280;41468;48.838;9.330;2023-02-04T11:20:52;100105.31;;;8.43;71.01
55604;BME280;41468;48.838;9.330;2023-02-04T11:26:03;100089.41;;;8.36;73.24
55604;BME280;41468;48.838;9.330;2023-02-04T11:33:46;100093.84;;;8.32;72.64
55604;BME280;41468;48.838;9.330;2023-02-04T11:36:14;100089.59;;;8.39;73.08
55604;BME280;41468;48.838;9.330;2023-02-04T11:38:48;100092.09;;;8.50;72.51
55604;BME280;41468;48.838;9.330;2023-02-04T11:41:27;100089.59;;;8.39;71.34
55604;BME280;41468;48.838;9.330;2023-02-04T11:43:57;100087.69;;;8.40;72.49
55604;BME280;41468;48.838;9.330;2023-02-04T11:46:25;100085.56;;;8.37;71.26
55604;BME280;41468;48.838;9.330;2023-02-04T11:48:56;100092.22;;;8.45;72.61
55604;BME280;41468;48.838;9.330;2023-02-04T11:51:28;100090.28;;;8.45;71.08
55604;BME280;41468;48.838;9.330;2023-02-04T11:53:55;100091.78;;;8.37;72.17
55604;BME280;41468;48.838;9.330;2023-02-04T11:56:32;100083.88;;;8.41;73.20
55604;BME280;41468;48.838;9.330;2023-02-04T11:59:10;100090.00;;;8.47;71.60
55604;BME280;41468;48.838;9.330;2023-02-04T12:01:48;100087.75;;;8.49;71.96
55604;BME280;41468;48.838;9.330;2023-02-04T12:04:22;100087.88;;;8.44;72.42
55604;BME280;41468;48.838;9.330;2023-02-04T12:07:01;100088.56;;;8.49;72.37
55604;BME280;41468;48.838;9.330;2023-02-04T12:09:30;100095.16;;;8.57;71.63
55604;BME280;41468;48.838;9.330;2023-02-04T12:12:01;100095.38;;;8.92;68.98
55604;BME280;41468;48.838;9.330;2023-02-04T12:14:33;100097.00;;;8.93;68.80
55604;BME280;41468;48.838;9.330;2023-02-04T12:17:17;100091.53;;;8.93;69.99
55604;BME280;41468;48.838;9.330;2023-02-04T12:19:44;100092.94;;;8.81;70.46
55604;BME280;41468;48.838;9.330;2023-02-04T12:22:11;100091.13;;;8.77;70.76
55604;BME280;41468;48.838;9.330;2023-02-04T12:24:40;100098.50;;;8.76;68.59
55604;BME280;41468;48.838;9.330;2023-02-04T12:27:07;100098.59;;;8.62;70.22
55604;BME280;41468;48.838;9.330;2023-02-04T12:29:33;100107.28;;;8.51;69.55
55604;BME280;41468;48.838;9.330;2023-02-04T12:32:00;100111.94;;;8.50;70.43
55604;BME280;41468;48.838;9.330;2023-02-04T12:34:27;100116.59;;;8.50;70.52
55604;BME280;41468;48.838;9.330;2023-02-04T12:36:54;100113.56;;;8.37;71.41
55604;BME280;41468;48.838;9.330;2023-02-04T12:39:20;100097.88;;;8.34;70.33
55604;BME280;41468;48.838;9.330;2023-02-04T12:41:47;100101.88;;;8.37;70.17
55604;BME280;41468;48.838;9.330;2023-02-04T12:44:13;100103.72;;;8.42;70.70
55604;BME280;41468;48.838;9.330;2023-02-04T12:46:42;100104.00;;;8.40;68.83
55604;BME280;41468;48.838;9.330;2023-02-04T12:49:13;100112.22;;;8.26;71.08
55604;BME280;41468;48.838;9.330;2023-02-04T12:51:40;100105.16;;;8.25;72.16
55604;BME280;41468;48.838;9.330;2023-02-04T12:54:07;100111.22;;;8.22;72.90
55604;BME280;41468;48.838;9.330;2023-02-04T12:56:33;100111.53;;;8.21;72.48
55604;BME280;41468;48.838;9.330;2023-02-04T12:59:00;100113.63;;;8.24;71.57
55604;BME280;41468;48.838;9.330;2023-02-04T13:01:26;100112.56;;;8.11;70.90
55604;BME280;41468;48.838;9.330;2023-02-04T13:03:53;100109.44;;;8.17;71.68
55604;BME280;41468;48.838;9.330;2023-02-04T13:06:20;100111.34;;;8.17;72.07
55604;BME280;41468;48.838;9.330;2023-02-04T13:08:46;100103.19;;;8.17;72.29
55604;BME280;41468;48.838;9.330;2023-02-04T13:11:24;100103.88;;;8.23;73.30
55604;BME280;41468;48.838;9.330;2023-02-04T13:13:50;100104.84;;;8.27;71.62
55604;BME280;41468;48.838;9.330;2023-02-04T13:16:17;100107.25;;;8.42;71.84